AXB2648 VOBL-VOPB
Flight info
| Callsign | AXB2648 |
|---|---|
| Flight time | 2h 13m |
| Altitude | 35000 |
| Route | TULNA7B TULNA W116 MMV P761 LEGIN L510 NIMOV |
| Aircraft | A320/M-SDE3FGHIRWY/LB1 |
Departure
| Time | 2026-05-06 05:57 |
|---|---|
| Airport | Kempegowda International Airport Bengaluru (VOBL) |
Arrival
| Time | 2026-05-06 08:11 |
|---|---|
| Airport | Veer Savarkar International Airport / INS Utkrosh (VOPB) |
| Time | Latitude | Longitude | Altitude | Speed | Heading |
|---|---|---|---|---|---|
| 2026-05-06 05:35 | 13.19930 | 77.72037 | 3012 ft | 0 kts | 264° |
| 2026-05-06 05:45 | 13.19930 | 77.72043 | 3011 ft | 2 kts | 261° |
| 2026-05-06 05:45 | 13.19936 | 77.72061 | 3014 ft | 3 kts | 237° |
| 2026-05-06 05:46 | 13.19944 | 77.72074 | 3016 ft | 1 kts | 249° |
| 2026-05-06 05:46 | 13.19948 | 77.72090 | 3014 ft | 3 kts | 281° |
| 2026-05-06 05:46 | 13.19940 | 77.72105 | 3014 ft | 3 kts | 337° |
| 2026-05-06 05:46 | 13.19921 | 77.72110 | 3014 ft | 3 kts | 356° |
| 2026-05-06 05:47 | 13.19910 | 77.72110 | 3017 ft | 1 kts | 0° |
| 2026-05-06 05:47 | 13.19907 | 77.72110 | 3017 ft | 0 kts | 0° |
| 2026-05-06 05:52 | 13.19911 | 77.72110 | 3016 ft | 1 kts | 0° |
| 2026-05-06 05:52 | 13.19912 | 77.72110 | 3011 ft | 0 kts | 0° |
| 2026-05-06 05:52 | 13.19918 | 77.72110 | 3011 ft | 4 kts | 0° |
| 2026-05-06 05:52 | 13.19941 | 77.72110 | 3011 ft | 2 kts | 0° |
| 2026-05-06 05:53 | 13.19963 | 77.72111 | 3011 ft | 4 kts | 0° |
| 2026-05-06 05:53 | 13.20003 | 77.72111 | 3011 ft | 7 kts | 360° |
| 2026-05-06 05:53 | 13.20065 | 77.72111 | 3011 ft | 11 kts | 1° |
| 2026-05-06 05:53 | 13.20151 | 77.72112 | 3011 ft | 14 kts | 0° |
| 2026-05-06 05:54 | 13.20259 | 77.72113 | 3011 ft | 16 kts | 360° |
| 2026-05-06 05:54 | 13.20373 | 77.72114 | 3011 ft | 17 kts | 0° |
| 2026-05-06 05:54 | 13.20435 | 77.72183 | 3011 ft | 16 kts | 90° |
| 2026-05-06 05:54 | 13.20462 | 77.72277 | 3011 ft | 14 kts | 32° |
| 2026-05-06 05:55 | 13.20557 | 77.72285 | 3011 ft | 14 kts | 360° |
| 2026-05-06 05:55 | 13.20653 | 77.72283 | 3011 ft | 11 kts | 352° |
| 2026-05-06 05:55 | 13.20690 | 77.72225 | 3011 ft | 10 kts | 270° |
| 2026-05-06 05:55 | 13.20689 | 77.72217 | 3011 ft | 0 kts | 269° |
| 2026-05-06 05:56 | 13.20689 | 77.72180 | 3011 ft | 24 kts | 270° |
| 2026-05-06 05:56 | 13.20693 | 77.71769 | 3011 ft | 91 kts | 270° |
| 2026-05-06 05:57 | 13.20702 | 77.70916 | 3011 ft | 146 kts | 271° |
| 2026-05-06 05:57 | 13.20741 | 77.69725 | 3124 ft | 179 kts | 276° |
| 2026-05-06 05:57 | 13.20823 | 77.68489 | 3868 ft | 174 kts | 276° |
| 2026-05-06 05:57 | 13.21076 | 77.67290 | 4334 ft | 175 kts | 301° |
| 2026-05-06 05:58 | 13.21802 | 77.66200 | 4481 ft | 195 kts | 306° |
| 2026-05-06 05:58 | 13.22602 | 77.64978 | 4635 ft | 218 kts | 304° |
| 2026-05-06 05:58 | 13.23462 | 77.63602 | 4873 ft | 241 kts | 304° |
| 2026-05-06 05:58 | 13.24396 | 77.62073 | 5105 ft | 264 kts | 303° |
| 2026-05-06 05:59 | 13.25375 | 77.60435 | 5645 ft | 273 kts | 302° |
| 2026-05-06 05:59 | 13.26360 | 77.58756 | 6388 ft | 276 kts | 302° |
| 2026-05-06 05:59 | 13.27347 | 77.57060 | 7108 ft | 279 kts | 302° |
| 2026-05-06 05:59 | 13.28122 | 77.55216 | 7732 ft | 288 kts | 283° |
| 2026-05-06 06:00 | 13.28115 | 77.53147 | 8357 ft | 297 kts | 257° |
| 2026-05-06 06:00 | 13.27207 | 77.51239 | 8971 ft | 303 kts | 229° |
| 2026-05-06 06:00 | 13.25549 | 77.49909 | 9605 ft | 306 kts | 202° |
| 2026-05-06 06:00 | 13.23482 | 77.49469 | 10191 ft | 305 kts | 174° |
| 2026-05-06 06:01 | 13.21365 | 77.49835 | 10500 ft | 319 kts | 165° |
| 2026-05-06 06:01 | 13.19128 | 77.50359 | 10622 ft | 341 kts | 164° |
| 2026-05-06 06:01 | 13.16753 | 77.50938 | 10742 ft | 361 kts | 164° |
| 2026-05-06 06:01 | 13.14252 | 77.51548 | 10886 ft | 378 kts | 165° |
| 2026-05-06 06:02 | 13.11739 | 77.52428 | 11150 ft | 385 kts | 151° |
| 2026-05-06 06:02 | 13.09516 | 77.53951 | 11676 ft | 385 kts | 136° |
| 2026-05-06 06:02 | 13.07754 | 77.56009 | 12230 ft | 385 kts | 122° |
| 2026-05-06 06:02 | 13.06573 | 77.58467 | 12755 ft | 386 kts | 107° |
| 2026-05-06 06:03 | 13.06073 | 77.61162 | 13273 ft | 388 kts | 93° |
| 2026-05-06 06:03 | 13.05924 | 77.63937 | 13789 ft | 390 kts | 93° |
| 2026-05-06 06:03 | 13.05770 | 77.66724 | 14231 ft | 394 kts | 93° |
| 2026-05-06 06:03 | 13.05606 | 77.69540 | 14648 ft | 397 kts | 94° |
| 2026-05-06 06:04 | 13.05438 | 77.72379 | 15028 ft | 401 kts | 94° |
| 2026-05-06 06:04 | 13.05271 | 77.75249 | 15396 ft | 405 kts | 94° |
| 2026-05-06 06:04 | 13.05101 | 77.78155 | 15759 ft | 410 kts | 94° |
| 2026-05-06 06:04 | 13.04926 | 77.81083 | 16109 ft | 414 kts | 94° |
| 2026-05-06 06:05 | 13.04746 | 77.84045 | 16456 ft | 418 kts | 94° |
| 2026-05-06 06:05 | 13.04565 | 77.87031 | 16811 ft | 422 kts | 94° |
| 2026-05-06 06:05 | 13.04381 | 77.90051 | 17141 ft | 426 kts | 94° |
| 2026-05-06 06:05 | 13.04198 | 77.93098 | 17489 ft | 430 kts | 94° |
| 2026-05-06 06:06 | 13.04013 | 77.96166 | 17837 ft | 433 kts | 94° |
| 2026-05-06 06:06 | 13.03823 | 77.99263 | 18184 ft | 436 kts | 94° |
| 2026-05-06 06:06 | 13.03629 | 78.02372 | 18491 ft | 439 kts | 95° |
| 2026-05-06 06:06 | 13.03434 | 78.05509 | 18804 ft | 442 kts | 94° |
| 2026-05-06 06:07 | 13.03240 | 78.08660 | 19119 ft | 444 kts | 94° |
| 2026-05-06 06:07 | 13.03045 | 78.11821 | 19436 ft | 446 kts | 94° |
| 2026-05-06 06:07 | 13.02848 | 78.15004 | 19754 ft | 448 kts | 94° |
| 2026-05-06 06:07 | 13.02655 | 78.18155 | 20050 ft | 450 kts | 94° |
| 2026-05-06 06:08 | 13.02456 | 78.21405 | 20357 ft | 452 kts | 94° |
| 2026-05-06 06:08 | 13.02261 | 78.24585 | 20650 ft | 454 kts | 94° |
| 2026-05-06 06:08 | 13.02062 | 78.27815 | 20945 ft | 456 kts | 94° |
| 2026-05-06 06:08 | 13.01861 | 78.31062 | 21235 ft | 457 kts | 94° |
| 2026-05-06 06:09 | 13.01655 | 78.34322 | 21520 ft | 459 kts | 94° |
| 2026-05-06 06:09 | 13.01448 | 78.37591 | 21799 ft | 461 kts | 94° |
| 2026-05-06 06:09 | 13.01240 | 78.40882 | 22072 ft | 463 kts | 94° |
| 2026-05-06 06:09 | 13.01032 | 78.44183 | 22342 ft | 465 kts | 94° |
| 2026-05-06 06:10 | 13.00823 | 78.47494 | 22605 ft | 466 kts | 94° |
| 2026-05-06 06:10 | 13.00613 | 78.50809 | 22866 ft | 468 kts | 94° |
| 2026-05-06 06:10 | 13.00402 | 78.54152 | 23123 ft | 470 kts | 94° |
| 2026-05-06 06:10 | 13.00193 | 78.57492 | 23363 ft | 471 kts | 94° |
| 2026-05-06 06:11 | 12.99980 | 78.60851 | 23578 ft | 473 kts | 94° |
| 2026-05-06 06:11 | 12.99763 | 78.64224 | 23775 ft | 474 kts | 94° |
| 2026-05-06 06:11 | 12.99544 | 78.67606 | 23974 ft | 476 kts | 94° |
| 2026-05-06 06:11 | 12.99326 | 78.70993 | 24167 ft | 477 kts | 94° |
| 2026-05-06 06:12 | 12.99110 | 78.74392 | 24358 ft | 478 kts | 94° |
| 2026-05-06 06:12 | 12.98892 | 78.77798 | 24546 ft | 479 kts | 94° |
| 2026-05-06 06:12 | 12.98674 | 78.81211 | 24725 ft | 480 kts | 94° |
| 2026-05-06 06:12 | 12.98455 | 78.84631 | 24917 ft | 481 kts | 94° |
| 2026-05-06 06:13 | 12.98234 | 78.88064 | 25101 ft | 483 kts | 94° |
| 2026-05-06 06:13 | 12.98013 | 78.91499 | 25277 ft | 484 kts | 94° |
| 2026-05-06 06:13 | 12.97791 | 78.94936 | 25465 ft | 485 kts | 94° |
| 2026-05-06 06:13 | 12.97568 | 78.98390 | 25640 ft | 486 kts | 94° |
| 2026-05-06 06:14 | 12.97342 | 79.01858 | 25824 ft | 487 kts | 94° |
| 2026-05-06 06:14 | 12.97113 | 79.05329 | 25999 ft | 488 kts | 94° |
| 2026-05-06 06:14 | 12.96885 | 79.08801 | 26175 ft | 489 kts | 94° |
| 2026-05-06 06:14 | 12.96886 | 79.12299 | 26334 ft | 491 kts | 89° |
| 2026-05-06 06:15 | 12.96962 | 79.15796 | 26573 ft | 490 kts | 89° |
| 2026-05-06 06:15 | 12.97035 | 79.19293 | 26843 ft | 489 kts | 89° |
| 2026-05-06 06:15 | 12.97106 | 79.22772 | 27105 ft | 488 kts | 89° |
| 2026-05-06 06:15 | 12.97174 | 79.26205 | 27361 ft | 488 kts | 89° |
| 2026-05-06 06:16 | 12.97240 | 79.29679 | 27624 ft | 487 kts | 89° |
| 2026-05-06 06:16 | 12.97306 | 79.33189 | 27891 ft | 486 kts | 89° |
| 2026-05-06 06:16 | 12.97371 | 79.36608 | 28157 ft | 485 kts | 89° |
| 2026-05-06 06:16 | 12.97438 | 79.40063 | 28421 ft | 485 kts | 89° |
| 2026-05-06 06:17 | 12.97507 | 79.43515 | 28692 ft | 484 kts | 89° |
| 2026-05-06 06:17 | 12.97574 | 79.46967 | 28957 ft | 484 kts | 89° |
| 2026-05-06 06:17 | 12.97637 | 79.50411 | 29219 ft | 483 kts | 89° |
| 2026-05-06 06:17 | 12.97700 | 79.53855 | 29478 ft | 483 kts | 89° |
| 2026-05-06 06:18 | 12.97763 | 79.57287 | 29746 ft | 482 kts | 89° |
| 2026-05-06 06:18 | 12.97825 | 79.60728 | 30000 ft | 482 kts | 89° |
| 2026-05-06 06:18 | 12.97887 | 79.64150 | 30221 ft | 481 kts | 89° |
| 2026-05-06 06:18 | 12.97949 | 79.67585 | 30446 ft | 481 kts | 89° |
| 2026-05-06 06:19 | 12.98012 | 79.71007 | 30695 ft | 480 kts | 89° |
| 2026-05-06 06:19 | 12.98073 | 79.74433 | 30998 ft | 480 kts | 89° |
| 2026-05-06 06:19 | 12.98132 | 79.77849 | 31287 ft | 479 kts | 89° |
| 2026-05-06 06:19 | 12.98190 | 79.81254 | 31558 ft | 479 kts | 90° |
| 2026-05-06 06:20 | 12.98246 | 79.84672 | 31822 ft | 478 kts | 89° |
| 2026-05-06 06:20 | 12.98302 | 79.88034 | 32057 ft | 477 kts | 89° |
| 2026-05-06 06:20 | 12.98361 | 79.91433 | 32292 ft | 477 kts | 89° |
| 2026-05-06 06:20 | 12.98419 | 79.94829 | 32510 ft | 476 kts | 89° |
| 2026-05-06 06:21 | 12.98478 | 79.98212 | 32752 ft | 475 kts | 89° |
| 2026-05-06 06:21 | 12.98538 | 80.01599 | 32993 ft | 475 kts | 89° |
| 2026-05-06 06:21 | 12.98596 | 80.04986 | 33247 ft | 474 kts | 90° |
| 2026-05-06 06:21 | 12.98652 | 80.08362 | 33494 ft | 474 kts | 90° |
| 2026-05-06 06:22 | 12.98708 | 80.11738 | 33740 ft | 473 kts | 90° |
| 2026-05-06 06:22 | 12.98749 | 80.15106 | 33966 ft | 472 kts | 92° |
| 2026-05-06 06:22 | 12.98508 | 80.18454 | 34176 ft | 471 kts | 96° |
| 2026-05-06 06:22 | 12.98202 | 80.21793 | 34395 ft | 470 kts | 96° |
| 2026-05-06 06:23 | 12.97899 | 80.25128 | 34605 ft | 469 kts | 96° |
| 2026-05-06 06:23 | 12.97598 | 80.28458 | 34779 ft | 469 kts | 96° |
| 2026-05-06 06:23 | 12.96993 | 80.35129 | 34845 ft | 471 kts | 96° |
| 2026-05-06 06:24 | 12.96385 | 80.41814 | 34841 ft | 471 kts | 96° |
| 2026-05-06 06:24 | 12.95773 | 80.48503 | 34853 ft | 471 kts | 96° |
| 2026-05-06 06:25 | 12.95162 | 80.55180 | 34855 ft | 470 kts | 96° |
| 2026-05-06 06:26 | 12.94256 | 80.65198 | 34856 ft | 470 kts | 96° |
| 2026-05-06 06:26 | 12.93644 | 80.71825 | 34856 ft | 470 kts | 96° |
| 2026-05-06 06:27 | 12.93024 | 80.78488 | 34857 ft | 470 kts | 96° |
| 2026-05-06 06:27 | 12.92409 | 80.85148 | 34855 ft | 469 kts | 96° |
| 2026-05-06 06:28 | 12.91790 | 80.91809 | 34851 ft | 469 kts | 96° |
| 2026-05-06 06:28 | 12.91170 | 80.98463 | 34862 ft | 469 kts | 96° |
| 2026-05-06 06:29 | 12.90550 | 81.05123 | 34865 ft | 469 kts | 96° |
| 2026-05-06 06:29 | 12.89935 | 81.11778 | 34855 ft | 469 kts | 96° |
| 2026-05-06 06:30 | 12.89319 | 81.18425 | 34863 ft | 469 kts | 96° |
| 2026-05-06 06:30 | 12.88693 | 81.25074 | 34861 ft | 469 kts | 96° |
| 2026-05-06 06:31 | 12.88064 | 81.31723 | 34867 ft | 469 kts | 97° |
| 2026-05-06 06:31 | 12.87434 | 81.38368 | 34865 ft | 469 kts | 96° |
| 2026-05-06 06:32 | 12.86809 | 81.45015 | 34861 ft | 468 kts | 97° |
| 2026-05-06 06:32 | 12.86171 | 81.51655 | 34868 ft | 468 kts | 97° |
| 2026-05-06 06:33 | 12.85539 | 81.58303 | 34866 ft | 468 kts | 97° |
| 2026-05-06 06:33 | 12.84907 | 81.64944 | 34864 ft | 468 kts | 97° |
| 2026-05-06 06:34 | 12.84277 | 81.71584 | 34860 ft | 468 kts | 97° |
| 2026-05-06 06:34 | 12.83643 | 81.78226 | 34863 ft | 468 kts | 97° |
| 2026-05-06 06:35 | 12.83000 | 81.84867 | 34868 ft | 468 kts | 97° |
| 2026-05-06 06:35 | 12.82355 | 81.91501 | 34868 ft | 468 kts | 97° |
| 2026-05-06 06:36 | 12.81719 | 81.98140 | 34868 ft | 468 kts | 97° |
| 2026-05-06 06:36 | 12.81080 | 82.04732 | 34861 ft | 468 kts | 97° |
| 2026-05-06 06:37 | 12.80430 | 82.11367 | 34862 ft | 468 kts | 97° |
| 2026-05-06 06:37 | 12.79787 | 82.18000 | 34863 ft | 468 kts | 97° |
| 2026-05-06 06:38 | 12.79139 | 82.24635 | 34862 ft | 468 kts | 97° |
| 2026-05-06 06:38 | 12.78487 | 82.31273 | 34860 ft | 468 kts | 97° |
| 2026-05-06 06:39 | 12.77830 | 82.37903 | 34860 ft | 468 kts | 97° |
| 2026-05-06 06:39 | 12.77173 | 82.44541 | 34865 ft | 468 kts | 97° |
| 2026-05-06 06:40 | 12.76523 | 82.51177 | 34865 ft | 468 kts | 97° |
| 2026-05-06 06:40 | 12.75872 | 82.57814 | 34868 ft | 468 kts | 97° |
| 2026-05-06 06:41 | 12.75211 | 82.64447 | 34867 ft | 468 kts | 97° |
| 2026-05-06 06:41 | 12.74663 | 82.69963 | 34860 ft | 468 kts | 97° |
| 2026-05-06 06:42 | 12.73996 | 82.76588 | 34862 ft | 468 kts | 97° |
| 2026-05-06 06:42 | 12.73335 | 82.83225 | 34868 ft | 468 kts | 97° |
| 2026-05-06 06:43 | 12.72676 | 82.89852 | 34867 ft | 468 kts | 97° |
| 2026-05-06 06:43 | 12.72005 | 82.96481 | 34869 ft | 468 kts | 97° |
| 2026-05-06 06:44 | 12.71336 | 83.03110 | 34871 ft | 467 kts | 97° |
| 2026-05-06 06:44 | 12.70674 | 83.09727 | 34869 ft | 467 kts | 97° |
| 2026-05-06 06:45 | 12.70003 | 83.16349 | 34871 ft | 467 kts | 97° |
| 2026-05-06 06:45 | 12.69332 | 83.22964 | 34873 ft | 467 kts | 97° |
| 2026-05-06 06:46 | 12.68657 | 83.29570 | 34864 ft | 466 kts | 97° |
| 2026-05-06 06:46 | 12.68181 | 83.34215 | 34862 ft | 466 kts | 97° |
| 2026-05-06 06:46 | 12.67852 | 83.37482 | 34829 ft | 454 kts | 97° |
| 2026-05-06 06:47 | 12.67545 | 83.40635 | 34849 ft | 438 kts | 97° |
| 2026-05-06 06:47 | 12.67251 | 83.43689 | 34855 ft | 423 kts | 97° |
| 2026-05-06 06:47 | 12.66963 | 83.46639 | 34855 ft | 410 kts | 97° |
| 2026-05-06 06:47 | 12.66676 | 83.49491 | 34858 ft | 396 kts | 98° |
| 2026-05-06 06:48 | 12.66392 | 83.52253 | 34851 ft | 383 kts | 98° |
| 2026-05-06 06:48 | 12.66119 | 83.54885 | 34853 ft | 371 kts | 98° |
| 2026-05-06 06:48 | 12.65854 | 83.57497 | 34857 ft | 358 kts | 98° |
| 2026-05-06 06:48 | 12.65611 | 83.59998 | 34908 ft | 347 kts | 97° |
| 2026-05-06 06:49 | 12.65400 | 83.62416 | 35106 ft | 335 kts | 97° |
| 2026-05-06 06:49 | 12.65068 | 83.67136 | 34681 ft | 341 kts | 96° |
| 2026-05-06 06:49 | 12.64931 | 83.69589 | 34337 ft | 348 kts | 95° |
| 2026-05-06 06:50 | 12.64799 | 83.72070 | 34341 ft | 349 kts | 97° |
| 2026-05-06 06:50 | 12.64639 | 83.74525 | 34694 ft | 341 kts | 97° |
| 2026-05-06 06:50 | 12.64455 | 83.76914 | 35066 ft | 333 kts | 98° |
| 2026-05-06 06:50 | 12.64220 | 83.79307 | 34827 ft | 347 kts | 100° |
| 2026-05-06 06:51 | 12.63817 | 83.81799 | 34578 ft | 359 kts | 103° |
| 2026-05-06 06:51 | 12.62872 | 83.86854 | 34732 ft | 366 kts | 104° |
| 2026-05-06 06:51 | 12.62343 | 83.89457 | 34504 ft | 380 kts | 103° |
| 2026-05-06 06:52 | 12.61860 | 83.92168 | 34278 ft | 394 kts | 101° |
| 2026-05-06 06:52 | 12.61369 | 83.97868 | 34231 ft | 408 kts | 94° |
| 2026-05-06 06:53 | 12.61137 | 84.03658 | 34515 ft | 407 kts | 95° |
| 2026-05-06 06:53 | 12.60940 | 84.06549 | 34692 ft | 407 kts | 97° |
| 2026-05-06 06:53 | 12.60679 | 84.09442 | 34823 ft | 409 kts | 98° |
| 2026-05-06 06:54 | 12.60054 | 84.15266 | 34864 ft | 412 kts | 98° |
| 2026-05-06 06:54 | 12.59414 | 84.21105 | 34868 ft | 415 kts | 98° |
| 2026-05-06 06:55 | 12.58788 | 84.27060 | 34865 ft | 427 kts | 98° |
| 2026-05-06 06:55 | 12.58174 | 84.33184 | 34857 ft | 438 kts | 97° |
| 2026-05-06 06:56 | 12.57539 | 84.39460 | 34862 ft | 449 kts | 97° |
| 2026-05-06 06:56 | 12.56884 | 84.45883 | 34865 ft | 459 kts | 98° |
| 2026-05-06 06:57 | 12.56210 | 84.52434 | 34865 ft | 465 kts | 98° |
| 2026-05-06 06:57 | 12.55534 | 84.59029 | 34862 ft | 466 kts | 97° |
| 2026-05-06 06:58 | 12.54859 | 84.65633 | 34864 ft | 467 kts | 97° |
| 2026-05-06 06:58 | 12.54183 | 84.72194 | 34865 ft | 467 kts | 98° |
| 2026-05-06 06:59 | 12.53491 | 84.78796 | 34860 ft | 467 kts | 98° |
| 2026-05-06 06:59 | 12.52801 | 84.85400 | 34863 ft | 467 kts | 98° |
| 2026-05-06 07:00 | 12.52116 | 84.92011 | 34860 ft | 467 kts | 98° |
| 2026-05-06 07:00 | 12.51429 | 84.98617 | 34865 ft | 467 kts | 98° |
| 2026-05-06 07:01 | 12.50739 | 85.05233 | 34858 ft | 467 kts | 98° |
| 2026-05-06 07:01 | 12.50047 | 85.11851 | 34864 ft | 468 kts | 98° |
| 2026-05-06 07:02 | 12.49350 | 85.18473 | 34871 ft | 468 kts | 98° |
| 2026-05-06 07:02 | 12.48648 | 85.25099 | 34865 ft | 468 kts | 98° |
| 2026-05-06 07:03 | 12.47951 | 85.31723 | 34865 ft | 468 kts | 98° |
| 2026-05-06 07:03 | 12.47249 | 85.38344 | 34869 ft | 468 kts | 98° |
| 2026-05-06 07:04 | 12.46547 | 85.44975 | 34874 ft | 469 kts | 98° |
| 2026-05-06 07:04 | 12.45849 | 85.51595 | 34868 ft | 468 kts | 98° |
| 2026-05-06 07:05 | 12.45143 | 85.58224 | 34873 ft | 468 kts | 98° |
| 2026-05-06 07:05 | 12.44436 | 85.64841 | 34869 ft | 468 kts | 98° |
| 2026-05-06 07:06 | 12.43728 | 85.71416 | 34875 ft | 468 kts | 98° |
| 2026-05-06 07:06 | 12.43011 | 85.78069 | 34875 ft | 467 kts | 98° |
| 2026-05-06 07:07 | 12.42304 | 85.84631 | 34875 ft | 467 kts | 98° |
| 2026-05-06 07:07 | 12.41596 | 85.91235 | 34869 ft | 468 kts | 98° |
| 2026-05-06 07:08 | 12.40879 | 85.97855 | 34873 ft | 468 kts | 98° |
| 2026-05-06 07:08 | 12.40160 | 86.04458 | 34870 ft | 468 kts | 98° |
| 2026-05-06 07:09 | 12.39438 | 86.11072 | 34872 ft | 468 kts | 98° |
| 2026-05-06 07:09 | 12.38724 | 86.17680 | 34873 ft | 468 kts | 98° |
| 2026-05-06 07:10 | 12.38005 | 86.24293 | 34870 ft | 468 kts | 98° |
| 2026-05-06 07:10 | 12.37282 | 86.30902 | 34865 ft | 467 kts | 98° |
| 2026-05-06 07:11 | 12.36556 | 86.37508 | 34869 ft | 467 kts | 98° |
| 2026-05-06 07:11 | 12.35831 | 86.44105 | 34860 ft | 467 kts | 98° |
| 2026-05-06 07:12 | 12.35098 | 86.50706 | 34863 ft | 467 kts | 98° |
| 2026-05-06 07:12 | 12.34367 | 86.57304 | 34868 ft | 467 kts | 98° |
| 2026-05-06 07:13 | 12.33649 | 86.63909 | 34867 ft | 466 kts | 98° |
| 2026-05-06 07:13 | 12.32916 | 86.70491 | 34867 ft | 466 kts | 98° |
| 2026-05-06 07:14 | 12.32172 | 86.77074 | 34857 ft | 466 kts | 98° |
| 2026-05-06 07:14 | 12.31443 | 86.83658 | 34862 ft | 466 kts | 98° |
| 2026-05-06 07:15 | 12.30720 | 86.90232 | 34848 ft | 465 kts | 98° |
| 2026-05-06 07:15 | 12.29987 | 86.96809 | 34852 ft | 465 kts | 98° |
| 2026-05-06 07:16 | 12.29248 | 87.03381 | 34845 ft | 465 kts | 98° |
| 2026-05-06 07:16 | 12.28509 | 87.09952 | 34857 ft | 465 kts | 98° |
| 2026-05-06 07:17 | 12.27777 | 87.16483 | 34857 ft | 465 kts | 98° |
| 2026-05-06 07:17 | 12.27031 | 87.23052 | 34856 ft | 465 kts | 98° |
| 2026-05-06 07:18 | 12.26282 | 87.29621 | 34856 ft | 465 kts | 98° |
| 2026-05-06 07:18 | 12.25539 | 87.36190 | 34854 ft | 465 kts | 98° |
| 2026-05-06 07:19 | 12.24795 | 87.42766 | 34859 ft | 465 kts | 98° |
| 2026-05-06 07:19 | 12.24052 | 87.49321 | 34851 ft | 464 kts | 98° |
| 2026-05-06 07:20 | 12.23307 | 87.55879 | 34857 ft | 464 kts | 98° |
| 2026-05-06 07:20 | 12.22563 | 87.62426 | 34855 ft | 464 kts | 98° |
| 2026-05-06 07:21 | 12.21813 | 87.68973 | 34856 ft | 464 kts | 98° |
| 2026-05-06 07:21 | 12.21062 | 87.75521 | 34855 ft | 464 kts | 98° |
| 2026-05-06 07:22 | 12.20310 | 87.82071 | 34845 ft | 464 kts | 98° |
| 2026-05-06 07:22 | 12.19554 | 87.88612 | 34854 ft | 463 kts | 98° |
| 2026-05-06 07:23 | 12.18792 | 87.95152 | 34853 ft | 463 kts | 98° |
| 2026-05-06 07:23 | 12.18031 | 88.01685 | 34852 ft | 463 kts | 98° |
| 2026-05-06 07:24 | 12.17279 | 88.08223 | 34849 ft | 463 kts | 98° |
| 2026-05-06 07:24 | 12.16523 | 88.14756 | 34847 ft | 463 kts | 98° |
| 2026-05-06 07:25 | 12.15765 | 88.21296 | 34849 ft | 463 kts | 98° |
| 2026-05-06 07:25 | 12.15004 | 88.27829 | 34850 ft | 463 kts | 98° |
| 2026-05-06 07:26 | 12.14241 | 88.34364 | 34849 ft | 463 kts | 98° |
| 2026-05-06 07:26 | 12.13471 | 88.40891 | 34838 ft | 463 kts | 98° |
| 2026-05-06 07:27 | 12.12711 | 88.47377 | 34835 ft | 462 kts | 98° |
| 2026-05-06 07:27 | 12.11933 | 88.53947 | 34828 ft | 463 kts | 98° |
| 2026-05-06 07:28 | 12.11169 | 88.60436 | 34826 ft | 463 kts | 98° |
| 2026-05-06 07:28 | 12.10011 | 88.70251 | 34824 ft | 464 kts | 98° |
| 2026-05-06 07:29 | 12.09395 | 88.76822 | 34827 ft | 465 kts | 96° |
| 2026-05-06 07:29 | 12.08871 | 88.83420 | 34827 ft | 466 kts | 96° |
| 2026-05-06 07:30 | 12.08417 | 88.88947 | 34827 ft | 466 kts | 96° |
| 2026-05-06 07:30 | 12.07832 | 88.95540 | 34833 ft | 466 kts | 97° |
| 2026-05-06 07:31 | 12.07234 | 89.02090 | 34833 ft | 466 kts | 97° |
| 2026-05-06 07:31 | 12.06636 | 89.08690 | 34831 ft | 466 kts | 97° |
| 2026-05-06 07:32 | 12.06047 | 89.15285 | 34834 ft | 466 kts | 97° |
| 2026-05-06 07:32 | 12.05460 | 89.21888 | 34835 ft | 466 kts | 97° |
| 2026-05-06 07:33 | 12.04868 | 89.28485 | 34835 ft | 466 kts | 97° |
| 2026-05-06 07:33 | 12.04272 | 89.35079 | 34836 ft | 467 kts | 97° |
| 2026-05-06 07:34 | 12.03669 | 89.41679 | 34835 ft | 467 kts | 97° |
| 2026-05-06 07:34 | 12.03064 | 89.48283 | 34834 ft | 467 kts | 97° |
| 2026-05-06 07:35 | 12.02465 | 89.54892 | 34833 ft | 467 kts | 96° |
| 2026-05-06 07:35 | 12.01876 | 89.61497 | 34834 ft | 467 kts | 96° |
| 2026-05-06 07:36 | 12.01273 | 89.68103 | 34822 ft | 467 kts | 97° |
| 2026-05-06 07:36 | 12.00659 | 89.74662 | 34822 ft | 467 kts | 97° |
| 2026-05-06 07:37 | 12.00055 | 89.81273 | 34821 ft | 467 kts | 96° |
| 2026-05-06 07:37 | 11.99453 | 89.87880 | 34829 ft | 467 kts | 96° |
| 2026-05-06 07:38 | 11.98848 | 89.94494 | 34826 ft | 468 kts | 96° |
| 2026-05-06 07:38 | 11.98233 | 90.01105 | 34826 ft | 468 kts | 96° |
| 2026-05-06 07:39 | 11.97617 | 90.07716 | 34819 ft | 468 kts | 96° |
| 2026-05-06 07:39 | 11.96998 | 90.14327 | 34816 ft | 468 kts | 96° |
| 2026-05-06 07:40 | 11.96379 | 90.20937 | 34811 ft | 468 kts | 96° |
| 2026-05-06 07:40 | 11.95762 | 90.27554 | 34820 ft | 468 kts | 96° |
| 2026-05-06 07:41 | 11.95142 | 90.34174 | 34817 ft | 468 kts | 97° |
| 2026-05-06 07:41 | 11.94515 | 90.40796 | 34820 ft | 469 kts | 96° |
| 2026-05-06 07:42 | 11.93892 | 90.47419 | 34819 ft | 469 kts | 96° |
| 2026-05-06 07:42 | 11.93269 | 90.54042 | 34812 ft | 469 kts | 96° |
| 2026-05-06 07:43 | 11.92647 | 90.60634 | 34820 ft | 469 kts | 97° |
| 2026-05-06 07:43 | 11.92014 | 90.67263 | 34815 ft | 469 kts | 97° |
| 2026-05-06 07:44 | 11.91588 | 90.71760 | 34797 ft | 462 kts | 96° |
| 2026-05-06 07:44 | 11.90964 | 90.78353 | 34596 ft | 468 kts | 97° |
| 2026-05-06 07:45 | 11.90646 | 90.81660 | 34371 ft | 469 kts | 97° |
| 2026-05-06 07:45 | 11.90325 | 90.84978 | 34147 ft | 470 kts | 97° |
| 2026-05-06 07:45 | 11.90003 | 90.88302 | 33928 ft | 471 kts | 97° |
| 2026-05-06 07:45 | 11.89682 | 90.91632 | 33685 ft | 472 kts | 97° |
| 2026-05-06 07:46 | 11.89363 | 90.94963 | 33435 ft | 472 kts | 97° |
| 2026-05-06 07:46 | 11.89044 | 90.98300 | 33178 ft | 473 kts | 97° |
| 2026-05-06 07:46 | 11.88724 | 91.01643 | 32933 ft | 473 kts | 97° |
| 2026-05-06 07:46 | 11.88399 | 91.04988 | 32683 ft | 474 kts | 97° |
| 2026-05-06 07:47 | 11.88074 | 91.08335 | 32437 ft | 474 kts | 97° |
| 2026-05-06 07:47 | 11.87749 | 91.11690 | 32195 ft | 474 kts | 97° |
| 2026-05-06 07:47 | 11.87426 | 91.15037 | 31954 ft | 475 kts | 97° |
| 2026-05-06 07:47 | 11.87100 | 91.18399 | 31715 ft | 476 kts | 97° |
| 2026-05-06 07:48 | 11.86775 | 91.21759 | 31476 ft | 476 kts | 96° |
| 2026-05-06 07:48 | 11.86298 | 91.25104 | 31240 ft | 475 kts | 104° |
| 2026-05-06 07:48 | 11.85291 | 91.28306 | 31010 ft | 474 kts | 114° |
| 2026-05-06 07:48 | 11.83754 | 91.31280 | 30778 ft | 474 kts | 124° |
| 2026-05-06 07:49 | 11.81741 | 91.33933 | 30549 ft | 473 kts | 134° |
| 2026-05-06 07:49 | 11.79398 | 91.36286 | 30324 ft | 474 kts | 136° |
| 2026-05-06 07:49 | 11.77023 | 91.38628 | 30093 ft | 475 kts | 136° |
| 2026-05-06 07:49 | 11.74648 | 91.40979 | 29864 ft | 476 kts | 136° |
| 2026-05-06 07:50 | 11.72268 | 91.43338 | 29614 ft | 477 kts | 136° |
| 2026-05-06 07:50 | 11.69893 | 91.45698 | 29345 ft | 477 kts | 135° |
| 2026-05-06 07:50 | 11.67548 | 91.48033 | 29084 ft | 477 kts | 135° |
| 2026-05-06 07:50 | 11.65168 | 91.50400 | 28829 ft | 478 kts | 135° |
| 2026-05-06 07:51 | 11.62793 | 91.52761 | 28139 ft | 477 kts | 135° |
| 2026-05-06 07:51 | 11.60416 | 91.55125 | 26876 ft | 475 kts | 135° |
| 2026-05-06 07:51 | 11.58067 | 91.57456 | 25694 ft | 467 kts | 135° |
| 2026-05-06 07:51 | 11.55757 | 91.59748 | 24589 ft | 459 kts | 135° |
| 2026-05-06 07:52 | 11.53477 | 91.62008 | 23526 ft | 457 kts | 135° |
| 2026-05-06 07:52 | 11.51213 | 91.64249 | 22348 ft | 450 kts | 136° |
| 2026-05-06 07:52 | 11.49008 | 91.66429 | 21733 ft | 430 kts | 135° |
| 2026-05-06 07:52 | 11.46929 | 91.68480 | 21600 ft | 401 kts | 136° |
| 2026-05-06 07:53 | 11.44978 | 91.70393 | 21317 ft | 380 kts | 136° |
| 2026-05-06 07:53 | 11.43100 | 91.72232 | 20696 ft | 370 kts | 136° |
| 2026-05-06 07:53 | 11.41255 | 91.74039 | 20000 ft | 365 kts | 136° |
| 2026-05-06 07:53 | 11.39437 | 91.75818 | 19298 ft | 360 kts | 136° |
| 2026-05-06 07:54 | 11.37643 | 91.77573 | 18628 ft | 356 kts | 136° |
| 2026-05-06 07:54 | 11.35868 | 91.79310 | 17942 ft | 351 kts | 136° |
| 2026-05-06 07:54 | 11.34114 | 91.81025 | 17175 ft | 347 kts | 136° |
| 2026-05-06 07:54 | 11.32383 | 91.82717 | 16453 ft | 343 kts | 136° |
| 2026-05-06 07:55 | 11.30667 | 91.84393 | 15752 ft | 340 kts | 136° |
| 2026-05-06 07:55 | 11.29001 | 91.86018 | 15496 ft | 323 kts | 136° |
| 2026-05-06 07:55 | 11.27404 | 91.87572 | 15082 ft | 313 kts | 136° |
| 2026-05-06 07:55 | 11.25836 | 91.89093 | 14566 ft | 309 kts | 136° |
| 2026-05-06 07:56 | 11.24399 | 91.90694 | 14016 ft | 305 kts | 121° |
| 2026-05-06 07:56 | 11.23675 | 91.92692 | 13479 ft | 301 kts | 96° |
| 2026-05-06 07:56 | 11.23614 | 91.94817 | 12835 ft | 301 kts | 90° |
| 2026-05-06 07:56 | 11.23672 | 91.96911 | 12248 ft | 299 kts | 89° |
| 2026-05-06 07:57 | 11.23745 | 91.99014 | 11674 ft | 296 kts | 89° |
| 2026-05-06 07:57 | 11.23822 | 92.01098 | 11113 ft | 293 kts | 89° |
| 2026-05-06 07:57 | 11.23902 | 92.03162 | 10555 ft | 290 kts | 89° |
| 2026-05-06 07:57 | 11.23981 | 92.05204 | 10033 ft | 287 kts | 89° |
| 2026-05-06 07:58 | 11.24061 | 92.07248 | 9594 ft | 291 kts | 89° |
| 2026-05-06 07:58 | 11.24143 | 92.09317 | 9116 ft | 293 kts | 89° |
| 2026-05-06 07:58 | 11.24228 | 92.11393 | 8640 ft | 294 kts | 89° |
| 2026-05-06 07:58 | 11.24316 | 92.13485 | 8178 ft | 296 kts | 89° |
| 2026-05-06 07:59 | 11.24406 | 92.15579 | 7723 ft | 297 kts | 89° |
| 2026-05-06 07:59 | 11.24498 | 92.17669 | 7360 ft | 294 kts | 89° |
| 2026-05-06 07:59 | 11.24709 | 92.19732 | 7004 ft | 293 kts | 76° |
| 2026-05-06 07:59 | 11.25524 | 92.21608 | 6747 ft | 288 kts | 64° |
| 2026-05-06 08:00 | 11.26469 | 92.23388 | 6493 ft | 282 kts | 64° |
| 2026-05-06 08:00 | 11.27391 | 92.25127 | 6241 ft | 278 kts | 64° |
| 2026-05-06 08:00 | 11.28307 | 92.26853 | 5969 ft | 275 kts | 64° |
| 2026-05-06 08:00 | 11.29217 | 92.28567 | 5697 ft | 275 kts | 64° |
| 2026-05-06 08:01 | 11.30121 | 92.30272 | 5429 ft | 273 kts | 64° |
| 2026-05-06 08:01 | 11.31023 | 92.31972 | 5167 ft | 272 kts | 64° |
| 2026-05-06 08:01 | 11.31920 | 92.33664 | 4914 ft | 271 kts | 64° |
| 2026-05-06 08:01 | 11.32801 | 92.35326 | 4660 ft | 270 kts | 64° |
| 2026-05-06 08:02 | 11.33704 | 92.37029 | 4390 ft | 269 kts | 64° |
| 2026-05-06 08:02 | 11.34580 | 92.38679 | 4124 ft | 267 kts | 64° |
| 2026-05-06 08:02 | 11.35463 | 92.40338 | 3857 ft | 266 kts | 64° |
| 2026-05-06 08:02 | 11.36342 | 92.41991 | 3591 ft | 264 kts | 64° |
| 2026-05-06 08:03 | 11.37214 | 92.43629 | 3332 ft | 262 kts | 64° |
| 2026-05-06 08:03 | 11.38081 | 92.45262 | 3084 ft | 261 kts | 64° |
| 2026-05-06 08:03 | 11.38941 | 92.46886 | 3001 ft | 261 kts | 64° |
| 2026-05-06 08:03 | 11.39801 | 92.48511 | 3003 ft | 261 kts | 64° |
| 2026-05-06 08:04 | 11.40669 | 92.50148 | 3010 ft | 263 kts | 64° |
| 2026-05-06 08:04 | 11.41533 | 92.51773 | 3005 ft | 255 kts | 64° |
| 2026-05-06 08:04 | 11.42349 | 92.53306 | 3008 ft | 238 kts | 64° |
| 2026-05-06 08:04 | 11.43122 | 92.54764 | 3008 ft | 231 kts | 65° |
| 2026-05-06 08:05 | 11.43883 | 92.56205 | 3014 ft | 231 kts | 64° |
| 2026-05-06 08:05 | 11.44646 | 92.57648 | 3009 ft | 231 kts | 64° |
| 2026-05-06 08:05 | 11.45530 | 92.59016 | 3005 ft | 234 kts | 48° |
| 2026-05-06 08:05 | 11.46798 | 92.60033 | 3002 ft | 226 kts | 38° |
| 2026-05-06 08:06 | 11.48029 | 92.60941 | 3004 ft | 213 kts | 39° |
| 2026-05-06 08:06 | 11.49193 | 92.61806 | 3026 ft | 199 kts | 39° |
| 2026-05-06 08:06 | 11.50265 | 92.62605 | 2958 ft | 185 kts | 39° |
| 2026-05-06 08:06 | 11.51284 | 92.63368 | 2773 ft | 180 kts | 39° |
| 2026-05-06 08:07 | 11.52281 | 92.64113 | 2565 ft | 175 kts | 40° |
| 2026-05-06 08:07 | 11.53243 | 92.64831 | 2367 ft | 166 kts | 40° |
| 2026-05-06 08:07 | 11.54152 | 92.65510 | 2155 ft | 160 kts | 41° |
| 2026-05-06 08:07 | 11.55028 | 92.66165 | 1961 ft | 152 kts | 40° |
| 2026-05-06 08:08 | 11.55863 | 92.66788 | 1764 ft | 146 kts | 40° |
| 2026-05-06 08:08 | 11.56674 | 92.67394 | 1578 ft | 143 kts | 39° |
| 2026-05-06 08:08 | 11.57480 | 92.67998 | 1398 ft | 144 kts | 41° |
| 2026-05-06 08:08 | 11.58281 | 92.68596 | 1213 ft | 142 kts | 40° |
| 2026-05-06 08:09 | 11.59082 | 92.69196 | 1025 ft | 144 kts | 41° |
| 2026-05-06 08:09 | 11.59877 | 92.69800 | 804 ft | 139 kts | 43° |
| 2026-05-06 08:09 | 11.60670 | 92.70376 | 733 ft | 141 kts | 38° |
| 2026-05-06 08:09 | 11.61461 | 92.70966 | 469 ft | 140 kts | 40° |
| 2026-05-06 08:10 | 11.62235 | 92.71538 | 286 ft | 140 kts | 39° |
| 2026-05-06 08:10 | 11.63017 | 92.72138 | 132 ft | 140 kts | 38° |
| 2026-05-06 08:10 | 11.63764 | 92.72706 | 40 ft | 120 kts | 36° |
| 2026-05-06 08:10 | 11.64300 | 92.73097 | 23 ft | 71 kts | 36° |
| 2026-05-06 08:11 | 11.64564 | 92.73294 | 29 ft | 21 kts | 36° |
| 2026-05-06 08:11 | 11.64638 | 92.73347 | 32 ft | 12 kts | 36° |
| 2026-05-06 08:11 | 11.64697 | 92.73391 | 36 ft | 9 kts | 36° |
| 2026-05-06 08:11 | 11.64741 | 92.73424 | 39 ft | 7 kts | 36° |
| 2026-05-06 08:12 | 11.64787 | 92.73457 | 40 ft | 9 kts | 36° |
| 2026-05-06 08:12 | 11.64847 | 92.73502 | 44 ft | 13 kts | 38° |
| 2026-05-06 08:12 | 11.64920 | 92.73505 | 46 ft | 11 kts | 310° |
| 2026-05-06 08:12 | 11.64964 | 92.73446 | 46 ft | 10 kts | 321° |
| 2026-05-06 08:13 | 11.65015 | 92.73456 | 47 ft | 6 kts | 32° |
| 2026-05-06 08:13 | 11.65042 | 92.73475 | 48 ft | 3 kts | 25° |
| 2026-05-06 08:13 | 11.65050 | 92.73475 | 49 ft | 0 kts | 3° |
| 2026-05-06 08:13 | 11.65060 | 92.73472 | 49 ft | 2 kts | 338° |
| 2026-05-06 08:14 | 11.65067 | 92.73465 | 46 ft | 2 kts | 314° |
| 2026-05-06 08:14 | 11.65079 | 92.73452 | 48 ft | 6 kts | 311° |
| 2026-05-06 08:14 | 11.65100 | 92.73424 | 47 ft | 2 kts | 308° |
| 2026-05-06 08:14 | 11.65102 | 92.73421 | 45 ft | 0 kts | 308° |